Time;durP1;ratioP1;P1;durP2;ratioP2;P2;SDS_P1;SDS_P2;PMS_P1;PMS_P2;Temp;Humidity;BMP_temperature;BMP_pressure;BME280_temperature;BME280_humidity;BME280_pressure;Samples;Min_cycle;Max_cycle;Signal;HPM_P1;HPM_P2
2023/10/17 00:02:01;;;;;;;2.53;1.93;;;;;;;;;;6209066;23;20433;-96
2023/10/17 00:04:32;;;;;;;2.70;1.87;;;;;;;;;;6207971;23;20456;-92
2023/10/17 00:06:58;;;;;;;1.93;1.77;;;;;;;;;;6208640;23;20858;-96
2023/10/17 00:09:25;;;;;;;2.50;1.80;;;;;;;;;;6209552;23;20383;-96
2023/10/17 00:14:23;;;;;;;1.57;1.47;;;;;;;;;;6232630;23;20706;-95
2023/10/17 00:19:26;;;;;;;2.63;2.30;;;;;;;;;;6234646;22;20417;-94
2023/10/17 00:21:52;;;;;;;4.90;1.77;;;;;;;;;;6211125;23;20430;-96
2023/10/17 00:24:23;;;;;;;1.83;1.73;;;;;;;;;;6207829;23;20489;-95
2023/10/17 00:26:49;;;;;;;1.93;1.73;;;;;;;;;;6203526;23;20395;-96
2023/10/17 00:29:15;;;;;;;2.60;1.93;;;;;;;;;;6201167;23;20391;-96
2023/10/17 00:31:43;;;;;;;1.73;1.37;;;;;;;;;;6204470;23;20413;-96
2023/10/17 00:34:16;;;;;;;2.30;1.60;;;;;;;;;;6227472;22;20406;-96
2023/10/17 00:39:49;;;;;;;1.50;1.40;;;;;;;;;;6124280;23;20403;-94
2023/10/17 00:42:34;;;;;;;2.60;2.33;;;;;;;;;;6111240;23;20438;-96
2023/10/17 00:45:00;;;;;;;2.00;1.40;;;;;;;;;;6105691;23;20502;-94
2023/10/17 00:47:27;;;;;;;2.73;2.13;;;;;;;;;;6109351;23;20481;-96
2023/10/17 00:52:32;;;;;;;3.43;1.93;;;;;;;;;;6270574;22;20432;-96
2023/10/17 00:54:59;;;;;;;2.73;2.23;;;;;;;;;;6264189;22;20386;-94
2023/10/17 00:57:26;;;;;;;4.10;1.70;;;;;;;;;;6236841;22;20437;-91
2023/10/17 00:59:53;;;;;;;3.27;2.30;;;;;;;;;;6237087;22;20389;-96
2023/10/17 01:02:23;;;;;;;2.47;2.27;;;;;;;;;;6240577;22;20443;-93
2023/10/17 01:04:50;;;;;;;2.33;2.13;;;;;;;;;;6236546;22;20510;-95
2023/10/17 01:07:34;;;;;;;2.80;1.90;;;;;;;;;;6236535;22;20480;-96
2023/10/17 01:10:16;;;;;;;3.47;2.50;;;;;;;;;;6240901;22;20384;-94
2023/10/17 01:15:42;;;;;;;2.23;2.03;;;;;;;;;;6179579;23;20420;-96
2023/10/17 01:18:08;;;;;;;2.87;2.67;;;;;;;;;;6122840;23;20419;-94
2023/10/17 01:20:35;;;;;;;2.50;2.17;;;;;;;;;;6169416;23;20483;-96
2023/10/17 01:23:01;;;;;;;1.63;1.47;;;;;;;;;;6170602;23;20403;-95
2023/10/17 01:25:40;;;;;;;3.90;1.90;;;;;;;;;;6171217;23;20380;-96
2023/10/17 01:28:07;;;;;;;2.50;2.03;;;;;;;;;;6205877;23;20457;-94
2023/10/17 01:30:41;;;;;;;3.70;2.30;;;;;;;;;;6258746;23;20434;-94
2023/10/17 01:33:08;;;;;;;5.30;2.40;;;;;;;;;;6227914;23;20405;-91
2023/10/17 01:35:33;;;;;;;1.97;1.70;;;;;;;;;;6226566;23;20385;-89
2023/10/17 01:37:59;;;;;;;2.00;1.80;;;;;;;;;;6253449;23;20374;-91
2023/10/17 01:40:26;;;;;;;2.40;2.23;;;;;;;;;;6225897;23;20382;-90
2023/10/17 01:42:53;;;;;;;1.73;1.60;;;;;;;;;;6227883;23;20454;-90
2023/10/17 01:45:25;;;;;;;3.23;2.63;;;;;;;;;;6226843;23;20385;-89
2023/10/17 01:47:51;;;;;;;2.37;2.17;;;;;;;;;;6230502;22;20422;-89
2023/10/17 01:50:18;;;;;;;4.93;2.23;;;;;;;;;;6228570;23;20393;-86
2023/10/17 01:52:45;;;;;;;3.80;2.50;;;;;;;;;;6227722;23;20388;-89
2023/10/17 01:55:14;;;;;;;10.50;2.43;;;;;;;;;;6227939;22;20400;-89
2023/10/17 01:57:43;;;;;;;3.30;2.30;;;;;;;;;;6227643;23;20389;-90
2023/10/17 02:02:56;;;;;;;3.73;2.00;;;;;;;;;;6252741;23;20421;-89
2023/10/17 02:05:22;;;;;;;3.87;2.33;;;;;;;;;;6229698;22;20386;-89
2023/10/17 02:07:48;;;;;;;3.43;2.40;;;;;;;;;;6227813;23;20381;-89
2023/10/17 02:10:29;;;;;;;2.40;2.20;;;;;;;;;;6232744;22;20362;-89
2023/10/17 02:12:55;;;;;;;2.47;2.27;;;;;;;;;;6232091;23;20370;-89
2023/10/17 02:15:24;;;;;;;3.90;2.77;;;;;;;;;;6229807;23;20370;-90
2023/10/17 02:17:51;;;;;;;2.00;1.80;;;;;;;;;;6232983;23;20381;-89
2023/10/17 02:20:29;;;;;;;2.97;2.10;;;;;;;;;;6227073;23;20392;-90
2023/10/17 02:22:57;;;;;;;6.97;2.50;;;;;;;;;;6233881;23;20378;-89
2023/10/17 02:25:34;;;;;;;1.53;1.43;;;;;;;;;;6227196;23;20457;-90
2023/10/17 02:28:01;;;;;;;1.40;1.30;;;;;;;;;;6231204;23;20488;-89
2023/10/17 02:30:27;;;;;;;6.33;3.10;;;;;;;;;;6229009;23;21020;-90
2023/10/17 02:32:55;;;;;;;2.90;2.40;;;;;;;;;;6236116;22;20401;-90
2023/10/17 02:35:40;;;;;;;6.53;2.20;;;;;;;;;;6229190;23;20437;-90
2023/10/17 02:38:08;;;;;;;2.20;1.87;;;;;;;;;;6235378;23;20428;-90
2023/10/17 02:40:34;;;;;;;3.43;2.10;;;;;;;;;;6227999;23;20420;-89
2023/10/17 02:43:03;;;;;;;11.50;2.40;;;;;;;;;;6259255;23;20842;-90
2023/10/17 02:45:29;;;;;;;3.40;2.70;;;;;;;;;;6229837;23;20405;-89
2023/10/17 02:47:56;;;;;;;3.70;2.93;;;;;;;;;;6255730;23;20366;-90
2023/10/17 02:50:41;;;;;;;3.17;2.80;;;;;;;;;;6230446;23;20698;-89
2023/10/17 02:53:12;;;;;;;3.30;3.00;;;;;;;;;;6237390;23;20390;-89
2023/10/17 02:55:38;;;;;;;5.60;3.00;;;;;;;;;;6229803;23;20357;-89
2023/10/17 02:58:04;;;;;;;4.97;2.90;;;;;;;;;;6227691;23;20464;-90
2023/10/17 03:00:36;;;;;;;2.90;2.20;;;;;;;;;;6225969;23;20381;-89
2023/10/17 03:03:12;;;;;;;4.40;2.57;;;;;;;;;;6237336;22;20422;-89
2023/10/17 03:05:41;;;;;;;3.33;2.63;;;;;;;;;;6228252;23;20366;-90
2023/10/17 03:08:17;;;;;;;4.40;2.20;;;;;;;;;;6230787;23;20440;-89
2023/10/17 03:10:43;;;;;;;2.60;2.40;;;;;;;;;;6228335;23;20733;-92
2023/10/17 03:13:39;;;;;;;6.30;3.43;;;;;;;;;;6228456;23;20387;-90
2023/10/17 03:16:24;;;;;;;5.17;2.87;;;;;;;;;;6233931;22;20390;-90
2023/10/17 03:18:50;;;;;;;2.90;2.50;;;;;;;;;;6232813;22;20370;-89
2023/10/17 03:21:18;;;;;;;2.30;2.10;;;;;;;;;;6229114;23;20426;-90
2023/10/17 03:23:49;;;;;;;3.53;2.37;;;;;;;;;;6231111;23;20391;-90
2023/10/17 03:26:17;;;;;;;2.53;2.33;;;;;;;;;;6228316;23;20683;-91
2023/10/17 03:28:45;;;;;;;3.30;2.67;;;;;;;;;;6256001;23;20846;-91
2023/10/17 03:31:20;;;;;;;2.17;1.97;;;;;;;;;;6228985;22;20865;-90
2023/10/17 03:33:50;;;;;;;3.67;2.27;;;;;;;;;;6231389;23;20382;-90
2023/10/17 03:39:19;;;;;;;2.53;2.33;;;;;;;;;;6234366;22;20453;-91
2023/10/17 03:41:49;;;;;;;2.27;2.03;;;;;;;;;;6233224;23;20626;-89
2023/10/17 03:44:15;;;;;;;4.17;2.43;;;;;;;;;;6201924;23;20428;-89
2023/10/17 03:46:46;;;;;;;5.33;4.07;;;;;;;;;;6226556;23;20802;-89
2023/10/17 03:49:17;;;;;;;3.47;2.60;;;;;;;;;;6227560;23;20379;-89
2023/10/17 03:51:51;;;;;;;3.10;2.43;;;;;;;;;;6257846;22;20375;-89
2023/10/17 03:54:18;;;;;;;4.03;2.37;;;;;;;;;;6229591;23;20391;-89
2023/10/17 03:56:49;;;;;;;3.43;2.13;;;;;;;;;;6228042;23;20379;-89
2023/10/17 04:01:47;;;;;;;3.03;2.60;;;;;;;;;;6254959;22;20448;-91
2023/10/17 04:04:13;;;;;;;2.30;2.20;;;;;;;;;;6254239;23;20355;-91
2023/10/17 04:06:40;;;;;;;4.80;2.50;;;;;;;;;;6229540;23;20386;-88
2023/10/17 04:11:53;;;;;;;3.73;2.33;;;;;;;;;;6268969;22;20371;-88
2023/10/17 04:14:25;;;;;;;2.80;2.30;;;;;;;;;;6229070;23;20379;-91
2023/10/17 04:16:52;;;;;;;4.13;2.60;;;;;;;;;;6231557;23;20894;-89
2023/10/17 04:19:20;;;;;;;4.10;2.63;;;;;;;;;;6227161;23;20401;-91
2023/10/17 04:21:51;;;;;;;3.30;2.60;;;;;;;;;;6231454;23;20428;-88
2023/10/17 04:24:26;;;;;;;3.03;2.70;;;;;;;;;;6227400;23;20402;-91
2023/10/17 04:27:05;;;;;;;2.30;2.10;;;;;;;;;;6231265;23;20940;-92
2023/10/17 04:29:31;;;;;;;3.97;2.97;;;;;;;;;;6230065;23;20378;-91
2023/10/17 04:31:58;;;;;;;2.93;2.20;;;;;;;;;;6230650;23;21137;-90
2023/10/17 04:34:26;;;;;;;4.40;3.10;;;;;;;;;;6228709;23;20387;-91
2023/10/17 04:36:53;;;;;;;3.63;2.80;;;;;;;;;;6228219;23;20497;-91
2023/10/17 04:39:29;;;;;;;3.63;2.67;;;;;;;;;;6226753;23;20453;-91
2023/10/17 04:45:13;;;;;;;4.17;2.90;;;;;;;;;;6252067;23;20925;-91
2023/10/17 04:47:37;;;;;;;;;;;;;;;;;;;;;
2023/10/17 04:49:39;;;;;;;10.40;4.10;;;;;;;;;;6252520;23;20382;-91
2023/10/17 04:52:08;;;;;;;5.70;3.20;;;;;;;;;;6230172;23;21171;-91
2023/10/17 04:57:54;;;;;;;3.63;2.93;;;;;;;;;;6254862;23;20909;-89
2023/10/17 05:00:09;;;;;;;2.80;2.40;;;;;;;;;;6246364;23;20385;-91
2023/10/17 05:02:36;;;;;;;4.60;2.33;;;;;;;;;;6233192;23;20422;-88
2023/10/17 06:21:18;;;;;;;6.73;3.03;;;;;;;;;;6250646;23;20449;-91
2023/10/17 06:34:14;;;;;;;6.53;3.80;;;;;;;;;;6229364;23;20374;-91
2023/10/17 06:36:41;;;;;;;4.90;3.53;;;;;;;;;;6201843;23;20961;-92
2023/10/17 06:39:58;;;;;;;7.33;3.93;;;;;;;;;;6205169;23;20377;-89
2023/10/17 06:41:59;;;;;;;5.57;3.40;;;;;;;;;;6199794;23;20421;-89
2023/10/17 06:44:26;;;;;;;6.70;3.90;;;;;;;;;;6204620;23;20370;-91
2023/10/17 06:46:56;;;;;;;4.00;3.07;;;;;;;;;;6225578;23;20425;-90
2023/10/17 06:54:46;;;;;;;14.87;6.10;;;;;;;;;;6227673;23;20363;-91
2023/10/17 06:57:23;;;;;;;5.50;4.60;;;;;;;;;;6201285;23;20444;-91
2023/10/17 06:59:52;;;;;;;7.90;4.20;;;;;;;;;;6205585;23;20381;-91
2023/10/17 07:02:19;;;;;;;4.37;3.17;;;;;;;;;;6202464;23;20498;-91
2023/10/17 07:04:49;;;;;;;6.83;4.90;;;;;;;;;;6205740;23;20392;-91
2023/10/17 07:07:18;;;;;;;10.93;5.77;;;;;;;;;;6202203;23;20869;-90
2023/10/17 07:09:52;;;;;;;14.90;9.33;;;;;;;;;;6202357;23;20370;-90
2023/10/17 07:12:19;;;;;;;16.20;9.93;;;;;;;;;;6229209;22;20393;-91
2023/10/17 07:14:48;;;;;;;7.30;5.67;;;;;;;;;;6205976;23;20381;-91
2023/10/17 07:17:28;;;;;;;5.30;4.73;;;;;;;;;;6202950;23;20389;-90
2023/10/17 07:20:12;;;;;;;7.80;5.20;;;;;;;;;;6207076;23;20476;-91
2023/10/17 07:22:40;;;;;;;6.10;4.60;;;;;;;;;;6200952;23;20426;-90
2023/10/17 07:25:16;;;;;;;7.67;4.83;;;;;;;;;;6198825;23;20470;-91
2023/10/17 07:27:45;;;;;;;6.97;5.60;;;;;;;;;;6199859;23;20751;-91
2023/10/17 07:30:13;;;;;;;5.50;5.00;;;;;;;;;;6202796;23;20517;-90
2023/10/17 07:32:45;;;;;;;9.57;4.40;;;;;;;;;;6198573;23;20383;-90
2023/10/17 07:35:15;;;;;;;5.00;3.97;;;;;;;;;;6224178;23;20730;-89
2023/10/17 07:38:04;;;;;;;6.33;4.17;;;;;;;;;;6198408;23;20395;-91
2023/10/17 07:43:09;;;;;;;7.80;4.17;;;;;;;;;;6227252;23;20395;-91
2023/10/17 07:45:41;;;;;;;4.83;3.97;;;;;;;;;;6200261;23;20453;-91
2023/10/17 07:48:36;;;;;;;6.57;4.50;;;;;;;;;;6202967;23;20348;-90
2023/10/17 07:51:04;;;;;;;4.87;3.33;;;;;;;;;;6220939;23;20368;-90
2023/10/17 07:53:32;;;;;;;6.80;4.00;;;;;;;;;;6196655;23;20375;-90
2023/10/17 07:56:04;;;;;;;6.80;5.50;;;;;;;;;;6198706;23;20383;-93
2023/10/17 07:58:41;;;;;;;6.90;4.47;;;;;;;;;;6202682;23;20383;-91
2023/10/17 08:01:07;;;;;;;6.30;5.77;;;;;;;;;;6223968;23;20457;-91
2023/10/17 08:03:40;;;;;;;5.77;4.10;;;;;;;;;;6198317;23;20414;-92
2023/10/17 08:06:08;;;;;;;7.63;4.67;;;;;;;;;;6197210;23;20399;-91
2023/10/17 08:08:34;;;;;;;7.00;4.40;;;;;;;;;;6199197;23;20379;-92
2023/10/17 08:11:04;;;;;;;9.03;5.37;;;;;;;;;;6199244;23;20780;-92
2023/10/17 08:13:33;;;;;;;5.90;4.67;;;;;;;;;;6202829;23;20366;-91
2023/10/17 08:17:09;;;;;;;7.73;4.87;;;;;;;;;;6200073;23;20359;-91
2023/10/17 08:19:13;;;;;;;10.03;5.93;;;;;;;;;;6212201;23;20406;-91
2023/10/17 08:22:25;;;;;;;7.07;4.20;;;;;;;;;;6206528;23;20430;-93
2023/10/17 08:24:40;;;;;;;8.90;5.03;;;;;;;;;;6216367;23;20417;-92
2023/10/17 08:33:18;;;;;;;9.90;6.03;;;;;;;;;;6234926;23;20416;-92
2023/10/17 08:35:25;;;;;;;7.73;5.43;;;;;;;;;;6204148;23;20390;-91
2023/10/17 08:37:52;;;;;;;8.70;5.10;;;;;;;;;;6232155;23;20359;-91
2023/10/17 08:43:03;;;;;;;10.40;7.37;;;;;;;;;;6231654;23;20506;-92
2023/10/17 08:45:29;;;;;;;8.27;4.93;;;;;;;;;;6203153;23;20408;-91
2023/10/17 08:48:00;;;;;;;7.17;5.10;;;;;;;;;;6202832;23;20382;-90
2023/10/17 08:50:30;;;;;;;8.87;5.63;;;;;;;;;;6164202;23;20448;-92
2023/10/17 08:52:59;;;;;;;7.23;5.60;;;;;;;;;;6113757;23;20511;-92
2023/10/17 08:55:27;;;;;;;7.93;5.83;;;;;;;;;;6114658;23;20381;-91
2023/10/17 08:58:36;;;;;;;7.63;6.00;;;;;;;;;;6137832;23;20427;-91
2023/10/17 09:01:14;;;;;;;5.57;4.97;;;;;;;;;;6162581;23;20424;-91
2023/10/17 09:03:43;;;;;;;6.57;5.40;;;;;;;;;;6117379;23;20353;-91
2023/10/17 09:11:14;;;;;;;7.27;5.20;;;;;;;;;;6137085;23;20384;-91
2023/10/17 09:13:52;;;;;;;9.67;5.13;;;;;;;;;;6115329;23;20369;-91
2023/10/17 09:16:18;;;;;;;6.30;5.30;;;;;;;;;;6116591;23;20385;-90
2023/10/17 09:18:53;;;;;;;9.13;5.73;;;;;;;;;;6117348;23;20443;-91
2023/10/17 09:21:22;;;;;;;9.60;6.20;;;;;;;;;;6156086;23;20438;-91
2023/10/17 09:23:50;;;;;;;8.67;5.67;;;;;;;;;;6171076;23;20451;-91
2023/10/17 09:26:23;;;;;;;9.70;7.67;;;;;;;;;;6141729;23;20404;-92
2023/10/17 09:28:56;;;;;;;15.50;7.57;;;;;;;;;;6170815;23;20376;-92
2023/10/17 09:31:31;;;;;;;11.87;6.23;;;;;;;;;;6124160;23;20391;-92
2023/10/17 09:33:58;;;;;;;10.10;6.37;;;;;;;;;;6141874;23;20411;-93
2023/10/17 09:36:25;;;;;;;7.67;6.33;;;;;;;;;;6142484;23;20774;-91
2023/10/17 09:38:51;;;;;;;10.53;6.03;;;;;;;;;;6143644;23;20472;-91
2023/10/17 09:41:17;;;;;;;10.37;6.20;;;;;;;;;;6168560;23;21171;-90
2023/10/17 09:43:44;;;;;;;9.50;6.77;;;;;;;;;;6143104;23;20391;-91
2023/10/17 09:46:10;;;;;;;10.00;4.93;;;;;;;;;;6143716;23;20440;-92
2023/10/17 09:48:36;;;;;;;7.73;5.57;;;;;;;;;;6166827;23;20407;-91
2023/10/17 09:51:03;;;;;;;9.60;6.30;;;;;;;;;;6146112;23;20715;-93
2023/10/17 09:53:33;;;;;;;11.53;6.70;;;;;;;;;;6143955;23;20376;-92
2023/10/17 09:56:00;;;;;;;9.20;5.90;;;;;;;;;;6202440;23;20371;-91
2023/10/17 09:58:30;;;;;;;8.67;5.63;;;;;;;;;;6197916;23;20454;-91
2023/10/17 10:01:06;;;;;;;7.67;5.53;;;;;;;;;;6199996;23;20383;-92
2023/10/17 10:03:33;;;;;;;12.43;6.50;;;;;;;;;;6224013;23;20370;-91
2023/10/17 10:06:31;;;;;;;8.27;6.20;;;;;;;;;;6231286;23;20386;-92
2023/10/17 10:09:13;;;;;;;10.83;5.70;;;;;;;;;;6196486;23;20870;-92
2023/10/17 10:11:51;;;;;;;9.33;5.63;;;;;;;;;;6223689;23;20458;-92
2023/10/17 10:14:26;;;;;;;8.90;6.13;;;;;;;;;;6223535;23;20869;-92
2023/10/17 10:17:05;;;;;;;9.20;6.10;;;;;;;;;;6222470;23;20858;-92
2023/10/17 10:19:43;;;;;;;11.10;6.83;;;;;;;;;;6205209;23;20386;-92
2023/10/17 10:22:13;;;;;;;8.70;5.70;;;;;;;;;;6228298;23;20425;-92
2023/10/17 10:24:42;;;;;;;10.13;6.57;;;;;;;;;;6232246;23;20389;-91
2023/10/17 10:27:15;;;;;;;13.03;6.43;;;;;;;;;;6136781;23;20381;-91
2023/10/17 10:29:41;;;;;;;12.27;6.67;;;;;;;;;;6144167;23;20375;-92
2023/10/17 10:32:28;;;;;;;9.60;7.87;;;;;;;;;;6116082;23;20412;-92
2023/10/17 10:34:56;;;;;;;8.23;6.40;;;;;;;;;;6140382;23;20852;-90
2023/10/17 10:37:24;;;;;;;8.47;6.57;;;;;;;;;;6115126;23;20501;-90
2023/10/17 10:40:22;;;;;;;10.50;6.70;;;;;;;;;;6120845;23;20380;-91
2023/10/17 10:42:48;;;;;;;9.60;6.40;;;;;;;;;;6139221;23;20439;-92
2023/10/17 10:45:29;;;;;;;9.93;6.13;;;;;;;;;;6114900;23;20388;-92
2023/10/17 10:47:58;;;;;;;10.30;6.60;;;;;;;;;;6116619;23;20383;-92
2023/10/17 10:50:30;;;;;;;8.73;7.20;;;;;;;;;;6118129;23;20381;-92
2023/10/17 10:52:58;;;;;;;10.03;6.60;;;;;;;;;;6205136;23;20693;-91
2023/10/17 10:55:25;;;;;;;8.90;7.10;;;;;;;;;;6207224;23;20390;-91
2023/10/17 10:57:52;;;;;;;11.13;6.50;;;;;;;;;;6204301;23;20435;-91
2023/10/17 11:00:20;;;;;;;9.83;6.40;;;;;;;;;;6206903;23;20385;-91
2023/10/17 11:02:46;;;;;;;8.93;6.10;;;;;;;;;;6228931;23;20430;-92
2023/10/17 11:05:14;;;;;;;9.80;6.93;;;;;;;;;;6208131;23;20389;-92
2023/10/17 11:07:41;;;;;;;10.03;7.00;;;;;;;;;;6203983;23;20379;-91
2023/10/17 11:18:12;;;;;;;9.73;6.87;;;;;;;;;;6286631;22;20866;-91
2023/10/17 11:20:41;;;;;;;10.07;6.43;;;;;;;;;;6237468;22;20377;-92
2023/10/17 11:23:08;;;;;;;11.87;8.80;;;;;;;;;;6167181;23;20444;-91
2023/10/17 11:25:34;;;;;;;13.23;7.50;;;;;;;;;;6167896;23;20591;-90
2023/10/17 11:28:07;;;;;;;16.00;6.70;;;;;;;;;;6166020;23;20412;-92
2023/10/17 11:30:35;;;;;;;9.50;6.93;;;;;;;;;;6170069;23;20396;-91
2023/10/17 11:33:05;;;;;;;11.10;5.90;;;;;;;;;;6167078;23;20388;-91
2023/10/17 11:35:32;;;;;;;9.97;6.67;;;;;;;;;;6168019;23;20396;-92
2023/10/17 11:37:58;;;;;;;10.33;6.03;;;;;;;;;;6165937;23;20411;-91
2023/10/17 11:40:30;;;;;;;6.20;5.60;;;;;;;;;;6171423;23;20368;-90
2023/10/17 11:42:59;;;;;;;8.73;6.53;;;;;;;;;;6192204;23;20510;-91
2023/10/17 11:45:33;;;;;;;10.20;7.43;;;;;;;;;;6166728;23;20379;-92
2023/10/17 11:48:13;;;;;;;10.20;7.30;;;;;;;;;;6166986;23;20383;-91
2023/10/17 11:50:40;;;;;;;8.23;5.90;;;;;;;;;;6171402;23;20352;-92
2023/10/17 11:53:09;;;;;;;11.70;6.53;;;;;;;;;;6173665;22;20376;-90
2023/10/17 11:55:42;;;;;;;8.43;6.50;;;;;;;;;;6237190;22;20381;-90
2023/10/17 11:58:10;;;;;;;10.20;6.47;;;;;;;;;;6260313;22;20361;-91
2023/10/17 12:00:38;;;;;;;10.13;6.80;;;;;;;;;;6240182;22;20377;-91
2023/10/17 12:03:06;;;;;;;8.70;7.20;;;;;;;;;;6265648;22;20413;-91
2023/10/17 12:05:35;;;;;;;9.57;6.93;;;;;;;;;;6242111;22;20381;-91
2023/10/17 12:08:01;;;;;;;8.03;6.57;;;;;;;;;;6237451;22;20400;-92
2023/10/17 12:10:28;;;;;;;10.93;6.93;;;;;;;;;;6241930;22;20389;-91
2023/10/17 12:13:04;;;;;;;8.80;6.43;;;;;;;;;;6235557;22;20535;-91
2023/10/17 12:15:30;;;;;;;9.30;5.80;;;;;;;;;;6235482;22;20898;-91
2023/10/17 12:17:56;;;;;;;10.60;6.70;;;;;;;;;;6235521;22;20409;-91
2023/10/17 12:20:28;;;;;;;7.23;6.43;;;;;;;;;;6258687;22;20384;-91
2023/10/17 12:22:58;;;;;;;8.07;6.40;;;;;;;;;;6235796;22;20417;-91
2023/10/17 12:25:24;;;;;;;7.43;6.73;;;;;;;;;;6259445;22;20365;-91
2023/10/17 12:27:52;;;;;;;9.40;6.60;;;;;;;;;;6258028;22;20366;-91
2023/10/17 12:30:27;;;;;;;10.23;8.07;;;;;;;;;;6234596;22;20377;-91
2023/10/17 12:32:57;;;;;;;12.03;6.63;;;;;;;;;;6264079;22;20358;-91
2023/10/17 12:35:27;;;;;;;10.17;7.20;;;;;;;;;;6233512;22;20377;-91
2023/10/17 12:38:05;;;;;;;8.70;6.83;;;;;;;;;;6239965;22;20468;-90
2023/10/17 12:40:45;;;;;;;10.57;8.57;;;;;;;;;;6268866;22;20361;-90
2023/10/17 12:43:23;;;;;;;9.33;7.50;;;;;;;;;;6257687;22;20452;-91
2023/10/17 12:45:49;;;;;;;9.37;6.17;;;;;;;;;;6234510;22;20385;-91
2023/10/17 12:48:15;;;;;;;13.07;7.93;;;;;;;;;;6259857;22;20365;-90
2023/10/17 12:50:51;;;;;;;8.30;7.40;;;;;;;;;;6234211;22;20377;-91
2023/10/17 12:53:17;;;;;;;10.33;7.53;;;;;;;;;;6262567;22;20393;-91
2023/10/17 12:55:43;;;;;;;7.10;6.27;;;;;;;;;;6233928;22;20397;-92
2023/10/17 12:58:10;;;;;;;10.77;7.00;;;;;;;;;;6233790;22;20365;-92
2023/10/17 13:00:46;;;;;;;10.10;7.17;;;;;;;;;;6258665;22;20724;-91
2023/10/17 13:03:12;;;;;;;9.90;7.30;;;;;;;;;;6235792;22;20500;-91
2023/10/17 13:05:38;;;;;;;7.13;5.67;;;;;;;;;;6233192;22;20381;-93
2023/10/17 13:08:04;;;;;;;13.87;7.97;;;;;;;;;;6233683;22;20883;-90
2023/10/17 13:10:43;;;;;;;19.67;6.80;;;;;;;;;;6236087;22;20394;-91
2023/10/17 13:13:11;;;;;;;11.27;7.53;;;;;;;;;;6260727;22;20385;-92
2023/10/17 13:15:38;;;;;;;8.40;6.53;;;;;;;;;;6234987;22;20378;-91
2023/10/17 13:18:07;;;;;;;9.27;6.90;;;;;;;;;;6234329;22;20402;-92
2023/10/17 13:20:33;;;;;;;8.53;7.10;;;;;;;;;;6235973;22;20377;-91
2023/10/17 13:23:03;;;;;;;8.63;6.23;;;;;;;;;;6235145;22;20423;-91
2023/10/17 13:25:33;;;;;;;13.63;7.07;;;;;;;;;;6259936;22;20814;-93
2023/10/17 13:27:59;;;;;;;11.23;7.53;;;;;;;;;;6234128;22;20361;-91
2023/10/17 13:30:26;;;;;;;9.03;6.43;;;;;;;;;;6234881;22;20376;-91
2023/10/17 13:32:52;;;;;;;8.23;7.37;;;;;;;;;;6269297;22;20369;-96
2023/10/17 13:35:23;;;;;;;9.43;6.17;;;;;;;;;;6244385;22;20409;-96
2023/10/17 13:37:56;;;;;;;11.90;7.33;;;;;;;;;;6241986;22;20396;-95
2023/10/17 13:40:25;;;;;;;8.63;7.20;;;;;;;;;;6228117;23;20379;-93
2023/10/17 13:42:55;;;;;;;10.27;6.60;;;;;;;;;;6187227;23;20429;-94
2023/10/17 13:45:27;;;;;;;9.73;6.20;;;;;;;;;;6187143;23;20379;-95
2023/10/17 13:47:54;;;;;;;12.50;8.30;;;;;;;;;;6228915;23;20359;-94
2023/10/17 13:50:20;;;;;;;7.50;5.73;;;;;;;;;;6178220;23;20394;-95
2023/10/17 13:58:01;;;;;;;10.10;6.23;;;;;;;;;;6267333;22;20500;-92
2023/10/17 14:00:49;;;;;;;9.40;7.00;;;;;;;;;;6243028;23;20346;-92
2023/10/17 14:03:17;;;;;;;10.27;7.57;;;;;;;;;;6262602;23;20444;-93
2023/10/17 14:05:47;;;;;;;9.43;6.67;;;;;;;;;;6185228;23;20903;-92
2023/10/17 14:08:13;;;;;;;8.17;6.43;;;;;;;;;;6153238;23;20943;-92
2023/10/17 14:10:43;;;;;;;9.40;6.20;;;;;;;;;;6145981;23;20852;-93
2023/10/17 14:13:11;;;;;;;8.53;6.73;;;;;;;;;;6149045;23;20411;-94
2023/10/17 14:15:37;;;;;;;10.30;6.23;;;;;;;;;;6148443;23;20442;-93
2023/10/17 14:18:09;;;;;;;7.87;7.07;;;;;;;;;;6152451;23;20452;-93
2023/10/17 14:21:03;;;;;;;8.30;6.30;;;;;;;;;;6146227;23;20438;-94
2023/10/17 14:23:29;;;;;;;12.00;7.10;;;;;;;;;;6180174;23;20391;-94
2023/10/17 14:26:07;;;;;;;10.03;6.43;;;;;;;;;;6150336;23;20399;-93
2023/10/17 14:28:34;;;;;;;12.73;7.00;;;;;;;;;;6180038;23;20366;-95
2023/10/17 14:31:03;;;;;;;7.37;5.97;;;;;;;;;;6146656;23;20396;-95
2023/10/17 14:33:32;;;;;;;6.20;5.30;;;;;;;;;;6149439;23;20387;-96
2023/10/17 14:36:13;;;;;;;7.97;5.97;;;;;;;;;;6162792;23;20386;-94
2023/10/17 14:38:39;;;;;;;8.50;6.00;;;;;;;;;;6237977;23;20420;-95
2023/10/17 14:41:08;;;;;;;9.63;7.07;;;;;;;;;;6234379;23;20388;-95
2023/10/17 14:43:37;;;;;;;7.47;6.40;;;;;;;;;;6241698;23;20389;-95
2023/10/17 14:51:24;;;;;;;8.27;7.40;;;;;;;;;;6268361;22;20437;-94
2023/10/17 15:01:43;;;;;;;7.83;6.20;;;;;;;;;;6266770;22;20437;-94
2023/10/17 15:04:11;;;;;;;8.33;6.57;;;;;;;;;;6241466;23;20420;-95
2023/10/17 15:06:37;;;;;;;8.80;7.10;;;;;;;;;;6214581;23;20382;-96
2023/10/17 15:09:05;;;;;;;9.30;7.17;;;;;;;;;;6208792;23;20432;-95
2023/10/17 15:11:32;;;;;;;10.47;7.37;;;;;;;;;;6207697;23;20383;-94
2023/10/17 15:14:00;;;;;;;9.37;7.03;;;;;;;;;;6208998;23;20385;-95
2023/10/17 15:16:27;;;;;;;8.87;6.07;;;;;;;;;;6210548;23;20386;-94
2023/10/17 15:18:53;;;;;;;8.70;7.10;;;;;;;;;;6209660;23;20803;-94
2023/10/17 15:21:19;;;;;;;8.17;5.97;;;;;;;;;;6209138;23;20439;-94
2023/10/17 15:23:47;;;;;;;8.37;6.37;;;;;;;;;;6215418;23;20398;-95
2023/10/17 15:26:14;;;;;;;12.03;6.37;;;;;;;;;;6142748;23;20393;-96
2023/10/17 15:28:48;;;;;;;7.90;6.70;;;;;;;;;;6058829;23;20443;-94
2023/10/17 15:31:14;;;;;;;7.40;5.67;;;;;;;;;;6056813;23;20372;-95
2023/10/17 15:33:40;;;;;;;9.57;5.57;;;;;;;;;;6055237;23;20395;-92
2023/10/17 15:36:11;;;;;;;6.67;5.60;;;;;;;;;;6049056;23;20387;-92
2023/10/17 15:38:42;;;;;;;14.40;6.00;;;;;;;;;;6031604;23;20380;-91
2023/10/17 15:41:09;;;;;;;8.13;5.40;;;;;;;;;;6054207;23;20789;-91
2023/10/17 15:43:35;;;;;;;5.97;4.80;;;;;;;;;;6049467;23;20380;-92
2023/10/17 15:46:02;;;;;;;7.13;5.63;;;;;;;;;;6078238;23;20368;-91
2023/10/17 15:48:28;;;;;;;11.03;5.60;;;;;;;;;;6050148;23;20450;-91
2023/10/17 15:51:00;;;;;;;6.13;5.53;;;;;;;;;;6054215;23;20383;-89
2023/10/17 15:53:27;;;;;;;6.57;4.80;;;;;;;;;;6051776;23;20407;-89
2023/10/17 15:58:30;;;;;;;7.37;5.43;;;;;;;;;;6254304;22;20429;-91
2023/10/17 16:00:56;;;;;;;7.20;5.50;;;;;;;;;;6231979;23;20376;-91
2023/10/17 16:03:28;;;;;;;5.53;5.03;;;;;;;;;;6230505;23;20426;-92
2023/10/17 16:05:54;;;;;;;6.37;5.33;;;;;;;;;;6209407;23;20367;-91
2023/10/17 16:08:21;;;;;;;5.53;4.90;;;;;;;;;;6208447;23;20366;-90
2023/10/17 16:10:47;;;;;;;5.43;4.40;;;;;;;;;;6208195;23;20385;-89
2023/10/17 16:13:13;;;;;;;6.23;5.63;;;;;;;;;;6206298;23;20374;-89
2023/10/17 16:15:39;;;;;;;8.33;6.37;;;;;;;;;;6232045;23;20378;-91
2023/10/17 16:18:07;;;;;;;9.70;5.07;;;;;;;;;;6206724;23;20377;-91
2023/10/17 16:20:34;;;;;;;6.63;4.97;;;;;;;;;;6206612;23;20384;-91
2023/10/17 16:23:10;;;;;;;6.93;4.60;;;;;;;;;;6206125;23;20421;-91
2023/10/17 16:25:39;;;;;;;8.40;5.93;;;;;;;;;;6205558;23;20374;-91
2023/10/17 16:28:05;;;;;;;5.20;4.07;;;;;;;;;;6204620;23;20440;-91
2023/10/17 16:33:08;;;;;;;4.70;4.00;;;;;;;;;;6258146;22;20422;-90
2023/10/17 16:35:36;;;;;;;8.13;4.60;;;;;;;;;;6207812;23;20383;-92
2023/10/17 16:38:04;;;;;;;7.37;4.90;;;;;;;;;;6205414;23;20442;-90
2023/10/17 16:40:30;;;;;;;7.93;5.07;;;;;;;;;;6208186;23;20417;-91
2023/10/17 16:42:56;;;;;;;4.90;4.40;;;;;;;;;;6203675;23;20418;-91
2023/10/17 16:45:23;;;;;;;7.87;5.13;;;;;;;;;;6208877;23;20409;-91
2023/10/17 16:47:50;;;;;;;6.00;4.60;;;;;;;;;;6204058;23;20375;-91
2023/10/17 16:50:18;;;;;;;7.40;4.47;;;;;;;;;;6205226;23;20472;-91
2023/10/17 16:52:44;;;;;;;6.00;5.07;;;;;;;;;;6230931;23;20756;-90
2023/10/17 16:55:13;;;;;;;6.07;5.20;;;;;;;;;;6208529;23;20382;-91
2023/10/17 16:57:39;;;;;;;7.10;4.93;;;;;;;;;;6204908;23;20428;-92
2023/10/17 17:00:13;;;;;;;4.63;3.87;;;;;;;;;;6209212;23;20374;-91
2023/10/17 17:02:40;;;;;;;8.80;5.13;;;;;;;;;;6139424;23;20424;-92
2023/10/17 17:05:11;;;;;;;7.50;4.73;;;;;;;;;;6114319;23;20389;-92
2023/10/17 17:07:37;;;;;;;6.70;5.33;;;;;;;;;;6114012;23;20744;-91
2023/10/17 17:10:05;;;;;;;5.80;4.53;;;;;;;;;;6118029;23;20388;-91
2023/10/17 17:12:31;;;;;;;5.50;3.83;;;;;;;;;;6115103;23;20506;-91
2023/10/17 17:14:57;;;;;;;5.23;4.10;;;;;;;;;;6083346;23;20391;-93
2023/10/17 17:17:24;;;;;;;5.83;4.50;;;;;;;;;;6061688;23;20379;-91
2023/10/17 17:19:51;;;;;;;6.10;4.90;;;;;;;;;;6060402;23;20394;-91
2023/10/17 17:22:18;;;;;;;4.73;3.90;;;;;;;;;;6055483;23;20462;-92
2023/10/17 17:24:44;;;;;;;6.07;4.70;;;;;;;;;;6059441;23;20497;-90
2023/10/17 17:27:14;;;;;;;7.07;5.10;;;;;;;;;;6059188;23;20394;-91
2023/10/17 17:29:42;;;;;;;8.60;4.37;;;;;;;;;;6061975;23;20383;-91
2023/10/17 17:32:10;;;;;;;9.23;5.27;;;;;;;;;;6057694;23;20402;-92
2023/10/17 17:34:38;;;;;;;5.13;4.57;;;;;;;;;;6056363;23;20412;-91
2023/10/17 17:37:04;;;;;;;8.00;4.80;;;;;;;;;;6058639;23;20405;-89
2023/10/17 17:39:33;;;;;;;8.37;4.80;;;;;;;;;;6077248;23;20377;-93
2023/10/17 17:41:59;;;;;;;5.10;4.33;;;;;;;;;;6117754;23;20416;-91
2023/10/17 17:44:27;;;;;;;4.67;4.27;;;;;;;;;;6113019;23;20372;-92
2023/10/17 17:46:53;;;;;;;6.97;5.73;;;;;;;;;;6200323;23;20429;-92
2023/10/17 17:49:19;;;;;;;5.47;4.67;;;;;;;;;;6203411;23;20382;-94